sensor_id;sensor_type;location;lat;lon;timestamp;P1;durP1;ratioP1;P2;durP2;ratioP2
40953;SDS011;26686;50.130;8.710;2023-03-12T00:00:18;14.63;;;11.77;;
40953;SDS011;26686;50.130;8.710;2023-03-12T00:05:20;14.32;;;12.38;;
40953;SDS011;26686;50.130;8.710;2023-03-12T00:10:22;13.93;;;12.15;;
40953;SDS011;26686;50.130;8.710;2023-03-12T00:15:24;15.30;;;13.70;;
40953;SDS011;26686;50.130;8.710;2023-03-12T00:20:25;15.10;;;12.48;;
40953;SDS011;26686;50.130;8.710;2023-03-12T00:25:26;15.85;;;12.60;;
40953;SDS011;26686;50.130;8.710;2023-03-12T00:30:28;13.20;;;11.38;;
40953;SDS011;26686;50.130;8.710;2023-03-12T00:35:30;10.93;;;9.77;;
40953;SDS011;26686;50.130;8.710;2023-03-12T00:40:32;12.77;;;10.30;;
40953;SDS011;26686;50.130;8.710;2023-03-12T00:45:34;13.70;;;10.48;;
40953;SDS011;26686;50.130;8.710;2023-03-12T00:50:35;14.43;;;11.77;;
40953;SDS011;26686;50.130;8.710;2023-03-12T00:55:37;13.27;;;11.15;;
40953;SDS011;26686;50.130;8.710;2023-03-12T01:00:38;11.32;;;10.18;;
40953;SDS011;26686;50.130;8.710;2023-03-12T01:05:40;12.68;;;10.63;;
40953;SDS011;26686;50.130;8.710;2023-03-12T01:10:41;11.70;;;10.50;;
40953;SDS011;26686;50.130;8.710;2023-03-12T01:15:43;12.45;;;11.15;;
40953;SDS011;26686;50.130;8.710;2023-03-12T01:20:45;13.60;;;11.40;;
40953;SDS011;26686;50.130;8.710;2023-03-12T01:25:47;12.10;;;10.90;;
40953;SDS011;26686;50.130;8.710;2023-03-12T01:30:49;12.55;;;10.95;;
40953;SDS011;26686;50.130;8.710;2023-03-12T01:35:50;15.07;;;11.48;;
40953;SDS011;26686;50.130;8.710;2023-03-12T01:40:52;14.02;;;12.43;;
40953;SDS011;26686;50.130;8.710;2023-03-12T01:46:05;13.38;;;11.23;;
40953;SDS011;26686;50.130;8.710;2023-03-12T01:51:12;11.63;;;10.43;;
40953;SDS011;26686;50.130;8.710;2023-03-12T01:56:15;15.43;;;10.93;;
40953;SDS011;26686;50.130;8.710;2023-03-12T02:01:18;14.07;;;10.73;;
40953;SDS011;26686;50.130;8.710;2023-03-12T02:06:24;14.25;;;11.18;;
40953;SDS011;26686;50.130;8.710;2023-03-12T02:11:34;11.98;;;9.85;;
40953;SDS011;26686;50.130;8.710;2023-03-12T02:16:36;15.13;;;11.20;;
40953;SDS011;26686;50.130;8.710;2023-03-12T02:21:37;16.48;;;10.13;;
40953;SDS011;26686;50.130;8.710;2023-03-12T02:26:39;11.35;;;10.05;;
40953;SDS011;26686;50.130;8.710;2023-03-12T02:31:46;12.73;;;10.05;;
40953;SDS011;26686;50.130;8.710;2023-03-12T02:36:52;11.80;;;9.27;;
40953;SDS011;26686;50.130;8.710;2023-03-12T02:41:54;13.52;;;9.32;;
40953;SDS011;26686;50.130;8.710;2023-03-12T02:46:58;11.52;;;8.65;;
40953;SDS011;26686;50.130;8.710;2023-03-12T02:52:01;10.98;;;8.85;;
40953;SDS011;26686;50.130;8.710;2023-03-12T02:57:03;10.35;;;8.82;;
40953;SDS011;26686;50.130;8.710;2023-03-12T03:02:04;10.23;;;7.90;;
40953;SDS011;26686;50.130;8.710;2023-03-12T03:07:07;10.02;;;8.35;;
40953;SDS011;26686;50.130;8.710;2023-03-12T03:12:08;13.40;;;7.88;;
40953;SDS011;26686;50.130;8.710;2023-03-12T03:17:09;10.88;;;8.88;;
40953;SDS011;26686;50.130;8.710;2023-03-12T03:22:11;9.45;;;8.15;;
40953;SDS011;26686;50.130;8.710;2023-03-12T03:27:12;10.20;;;8.80;;
40953;SDS011;26686;50.130;8.710;2023-03-12T03:32:13;9.60;;;8.35;;
40953;SDS011;26686;50.130;8.710;2023-03-12T03:37:16;10.68;;;8.05;;
40953;SDS011;26686;50.130;8.710;2023-03-12T03:42:17;8.60;;;7.40;;
40953;SDS011;26686;50.130;8.710;2023-03-12T03:47:18;8.00;;;7.18;;
40953;SDS011;26686;50.130;8.710;2023-03-12T03:52:20;8.35;;;7.45;;
40953;SDS011;26686;50.130;8.710;2023-03-12T03:57:21;7.85;;;6.68;;
40953;SDS011;26686;50.130;8.710;2023-03-12T04:02:24;10.48;;;6.50;;
40953;SDS011;26686;50.130;8.710;2023-03-12T04:07:26;7.45;;;6.40;;
40953;SDS011;26686;50.130;8.710;2023-03-12T04:12:28;10.27;;;7.70;;
40953;SDS011;26686;50.130;8.710;2023-03-12T04:17:29;8.85;;;7.00;;
40953;SDS011;26686;50.130;8.710;2023-03-12T04:22:32;9.15;;;7.85;;
40953;SDS011;26686;50.130;8.710;2023-03-12T04:27:33;9.68;;;7.95;;
40953;SDS011;26686;50.130;8.710;2023-03-12T04:32:35;9.30;;;7.95;;
40953;SDS011;26686;50.130;8.710;2023-03-12T04:37:37;13.05;;;8.32;;
40953;SDS011;26686;50.130;8.710;2023-03-12T04:42:38;10.45;;;8.82;;
40953;SDS011;26686;50.130;8.710;2023-03-12T04:47:39;12.88;;;8.32;;
40953;SDS011;26686;50.130;8.710;2023-03-12T04:52:41;9.15;;;6.90;;
40953;SDS011;26686;50.130;8.710;2023-03-12T04:57:42;10.18;;;7.82;;
40953;SDS011;26686;50.130;8.710;2023-03-12T05:02:44;11.77;;;7.95;;
40953;SDS011;26686;50.130;8.710;2023-03-12T05:07:45;10.27;;;7.28;;
40953;SDS011;26686;50.130;8.710;2023-03-12T05:12:46;11.15;;;7.50;;
40953;SDS011;26686;50.130;8.710;2023-03-12T05:17:48;11.02;;;8.30;;
40953;SDS011;26686;50.130;8.710;2023-03-12T05:22:49;9.30;;;8.07;;
40953;SDS011;26686;50.130;8.710;2023-03-12T05:27:51;8.48;;;7.13;;
40953;SDS011;26686;50.130;8.710;2023-03-12T05:32:52;8.43;;;7.50;;
40953;SDS011;26686;50.130;8.710;2023-03-12T05:37:53;8.88;;;6.95;;
40953;SDS011;26686;50.130;8.710;2023-03-12T05:42:55;6.90;;;6.20;;
40953;SDS011;26686;50.130;8.710;2023-03-12T05:47:56;9.50;;;6.53;;
40953;SDS011;26686;50.130;8.710;2023-03-12T05:52:58;7.55;;;5.78;;
40953;SDS011;26686;50.130;8.710;2023-03-12T05:58:00;8.93;;;6.75;;
40953;SDS011;26686;50.130;8.710;2023-03-12T06:03:01;8.38;;;6.88;;
40953;SDS011;26686;50.130;8.710;2023-03-12T06:08:03;7.82;;;6.05;;
40953;SDS011;26686;50.130;8.710;2023-03-12T06:13:05;9.27;;;6.00;;
40953;SDS011;26686;50.130;8.710;2023-03-12T06:18:07;10.00;;;6.57;;
40953;SDS011;26686;50.130;8.710;2023-03-12T06:23:10;7.55;;;6.00;;
40953;SDS011;26686;50.130;8.710;2023-03-12T06:28:11;5.78;;;5.10;;
40953;SDS011;26686;50.130;8.710;2023-03-12T06:33:13;6.05;;;4.82;;
40953;SDS011;26686;50.130;8.710;2023-03-12T06:38:14;6.78;;;5.30;;
40953;SDS011;26686;50.130;8.710;2023-03-12T06:43:15;7.05;;;5.60;;
40953;SDS011;26686;50.130;8.710;2023-03-12T06:48:17;6.55;;;5.00;;
40953;SDS011;26686;50.130;8.710;2023-03-12T06:53:19;6.72;;;5.35;;
40953;SDS011;26686;50.130;8.710;2023-03-12T06:58:21;7.93;;;5.05;;
40953;SDS011;26686;50.130;8.710;2023-03-12T07:03:22;6.72;;;5.40;;
40953;SDS011;26686;50.130;8.710;2023-03-12T07:08:24;6.32;;;5.65;;
40953;SDS011;26686;50.130;8.710;2023-03-12T07:18:31;6.85;;;4.38;;
40953;SDS011;26686;50.130;8.710;2023-03-12T07:23:32;4.82;;;4.10;;
40953;SDS011;26686;50.130;8.710;2023-03-12T07:28:34;8.90;;;4.43;;
40953;SDS011;26686;50.130;8.710;2023-03-12T07:33:35;7.68;;;3.97;;
40953;SDS011;26686;50.130;8.710;2023-03-12T07:38:37;7.93;;;3.83;;
40953;SDS011;26686;50.130;8.710;2023-03-12T07:43:39;9.85;;;4.32;;
40953;SDS011;26686;50.130;8.710;2023-03-12T07:48:40;4.72;;;3.55;;
40953;SDS011;26686;50.130;8.710;2023-03-12T07:53:44;6.47;;;3.40;;
40953;SDS011;26686;50.130;8.710;2023-03-12T07:58:45;7.15;;;3.30;;
40953;SDS011;26686;50.130;8.710;2023-03-12T08:03:47;5.82;;;3.30;;
40953;SDS011;26686;50.130;8.710;2023-03-12T08:08:49;5.50;;;3.28;;
40953;SDS011;26686;50.130;8.710;2023-03-12T08:13:50;5.13;;;3.05;;
40953;SDS011;26686;50.130;8.710;2023-03-12T08:18:52;4.68;;;3.58;;
40953;SDS011;26686;50.130;8.710;2023-03-12T08:23:53;5.38;;;3.75;;
40953;SDS011;26686;50.130;8.710;2023-03-12T08:28:54;4.75;;;3.60;;
40953;SDS011;26686;50.130;8.710;2023-03-12T08:33:56;5.72;;;3.85;;
40953;SDS011;26686;50.130;8.710;2023-03-12T08:38:57;5.65;;;3.75;;
40953;SDS011;26686;50.130;8.710;2023-03-12T08:43:59;4.40;;;4.00;;
40953;SDS011;26686;50.130;8.710;2023-03-12T08:49:00;6.57;;;4.22;;
40953;SDS011;26686;50.130;8.710;2023-03-12T08:54:03;7.70;;;4.45;;
40953;SDS011;26686;50.130;8.710;2023-03-12T08:59:05;7.60;;;4.43;;
40953;SDS011;26686;50.130;8.710;2023-03-12T09:04:07;4.97;;;4.47;;
40953;SDS011;26686;50.130;8.710;2023-03-12T09:09:08;7.55;;;5.25;;
40953;SDS011;26686;50.130;8.710;2023-03-12T09:14:10;7.00;;;6.30;;
40953;SDS011;26686;50.130;8.710;2023-03-12T09:19:31;6.97;;;6.28;;
40953;SDS011;26686;50.130;8.710;2023-03-12T09:24:33;7.40;;;6.70;;
40953;SDS011;26686;50.130;8.710;2023-03-12T09:29:34;9.88;;;7.22;;
40953;SDS011;26686;50.130;8.710;2023-03-12T09:34:46;10.43;;;8.30;;
40953;SDS011;26686;50.130;8.710;2023-03-12T09:39:48;12.18;;;9.30;;
40953;SDS011;26686;50.130;8.710;2023-03-12T09:44:51;11.52;;;10.50;;
40953;SDS011;26686;50.130;8.710;2023-03-12T09:50:00;10.88;;;9.65;;
40953;SDS011;26686;50.130;8.710;2023-03-12T09:55:18;12.90;;;11.60;;
40953;SDS011;26686;50.130;8.710;2023-03-12T10:00:22;13.15;;;11.38;;
40953;SDS011;26686;50.130;8.710;2023-03-12T10:21:29;17.63;;;14.82;;
40953;SDS011;26686;50.130;8.710;2023-03-12T10:26:39;17.48;;;15.60;;
40953;SDS011;26686;50.130;8.710;2023-03-12T10:36:51;19.40;;;16.08;;
40953;SDS011;26686;50.130;8.710;2023-03-12T10:41:59;20.38;;;16.58;;
40953;SDS011;26686;50.130;8.710;2023-03-12T10:47:13;19.65;;;16.63;;
40953;SDS011;26686;50.130;8.710;2023-03-12T10:52:27;21.73;;;17.45;;
40953;SDS011;26686;50.130;8.710;2023-03-12T10:57:37;23.63;;;18.55;;
40953;SDS011;26686;50.130;8.710;2023-03-12T11:02:42;18.55;;;16.65;;
40953;SDS011;26686;50.130;8.710;2023-03-12T11:13:19;20.13;;;15.98;;
40953;SDS011;26686;50.130;8.710;2023-03-12T11:23:28;19.45;;;17.38;;
40953;SDS011;26686;50.130;8.710;2023-03-12T11:28:34;19.73;;;16.77;;
40953;SDS011;26686;50.130;8.710;2023-03-12T11:33:37;18.35;;;15.95;;
40953;SDS011;26686;50.130;8.710;2023-03-12T11:38:40;19.70;;;16.48;;
40953;SDS011;26686;50.130;8.710;2023-03-12T11:59:52;19.58;;;17.80;;
40953;SDS011;26686;50.130;8.710;2023-03-12T12:15:34;17.15;;;15.45;;
40953;SDS011;26686;50.130;8.710;2023-03-12T12:31:57;17.75;;;16.05;;
40953;SDS011;26686;50.130;8.710;2023-03-12T12:37:10;20.20;;;18.13;;
40953;SDS011;26686;50.130;8.710;2023-03-12T12:42:20;16.73;;;15.18;;
40953;SDS011;26686;50.130;8.710;2023-03-12T12:47:32;19.80;;;16.92;;
40953;SDS011;26686;50.130;8.710;2023-03-12T12:52:40;18.65;;;16.55;;
40953;SDS011;26686;50.130;8.710;2023-03-12T12:57:53;16.88;;;15.02;;
40953;SDS011;26686;50.130;8.710;2023-03-12T13:02:57;13.60;;;12.32;;
40953;SDS011;26686;50.130;8.710;2023-03-12T13:07:58;12.98;;;11.68;;
40953;SDS011;26686;50.130;8.710;2023-03-12T13:18:27;12.27;;;11.18;;
40953;SDS011;26686;50.130;8.710;2023-03-12T13:44:37;13.40;;;12.10;;
40953;SDS011;26686;50.130;8.710;2023-03-12T13:49:41;13.27;;;11.97;;
40953;SDS011;26686;50.130;8.710;2023-03-12T13:54:46;14.65;;;13.35;;
40953;SDS011;26686;50.130;8.710;2023-03-12T13:59:50;12.85;;;11.70;;
40953;SDS011;26686;50.130;8.710;2023-03-12T14:04:52;12.95;;;11.75;;
40953;SDS011;26686;50.130;8.710;2023-03-12T14:10:03;12.45;;;11.30;;
40953;SDS011;26686;50.130;8.710;2023-03-12T14:15:16;13.50;;;12.32;;
40953;SDS011;26686;50.130;8.710;2023-03-12T14:20:27;12.90;;;11.60;;
40953;SDS011;26686;50.130;8.710;2023-03-12T14:25:31;13.95;;;12.55;;
40953;SDS011;26686;50.130;8.710;2023-03-12T14:35:43;14.23;;;12.70;;
40953;SDS011;26686;50.130;8.710;2023-03-12T14:40:52;15.95;;;13.10;;
40953;SDS011;26686;50.130;8.710;2023-03-12T14:46:04;14.00;;;12.68;;
40953;SDS011;26686;50.130;8.710;2023-03-12T14:51:34;13.43;;;12.20;;
40953;SDS011;26686;50.130;8.710;2023-03-12T14:56:36;50.17;;;33.97;;
40953;SDS011;26686;50.130;8.710;2023-03-12T15:01:45;19.15;;;16.75;;
40953;SDS011;26686;50.130;8.710;2023-03-12T15:06:48;13.30;;;12.07;;
40953;SDS011;26686;50.130;8.710;2023-03-12T15:11:54;16.15;;;14.52;;
40953;SDS011;26686;50.130;8.710;2023-03-12T15:16:58;14.70;;;13.40;;
40953;SDS011;26686;50.130;8.710;2023-03-12T15:22:00;13.98;;;12.60;;
40953;SDS011;26686;50.130;8.710;2023-03-12T15:27:21;15.05;;;13.65;;
40953;SDS011;26686;50.130;8.710;2023-03-12T15:32:24;14.52;;;13.15;;
40953;SDS011;26686;50.130;8.710;2023-03-12T15:37:30;15.88;;;13.77;;
40953;SDS011;26686;50.130;8.710;2023-03-12T15:42:39;15.77;;;13.70;;
40953;SDS011;26686;50.130;8.710;2023-03-12T15:47:44;14.38;;;12.88;;
40953;SDS011;26686;50.130;8.710;2023-03-12T15:53:03;15.77;;;14.18;;
40953;SDS011;26686;50.130;8.710;2023-03-12T15:58:24;14.45;;;13.00;;
40953;SDS011;26686;50.130;8.710;2023-03-12T16:03:28;14.82;;;13.35;;
40953;SDS011;26686;50.130;8.710;2023-03-12T16:08:51;15.43;;;14.00;;
40953;SDS011;26686;50.130;8.710;2023-03-12T16:14:02;14.20;;;12.65;;
40953;SDS011;26686;50.130;8.710;2023-03-12T16:19:17;14.27;;;12.95;;
40953;SDS011;26686;50.130;8.710;2023-03-12T16:24:21;14.35;;;12.88;;
40953;SDS011;26686;50.130;8.710;2023-03-12T16:29:25;16.15;;;12.43;;
40953;SDS011;26686;50.130;8.710;2023-03-12T16:34:33;14.68;;;13.32;;
40953;SDS011;26686;50.130;8.710;2023-03-12T16:39:34;13.75;;;12.45;;
40953;SDS011;26686;50.130;8.710;2023-03-12T16:44:36;16.15;;;14.25;;
40953;SDS011;26686;50.130;8.710;2023-03-12T16:49:37;13.82;;;12.43;;
40953;SDS011;26686;50.130;8.710;2023-03-12T16:54:39;13.43;;;12.10;;
40953;SDS011;26686;50.130;8.710;2023-03-12T16:59:40;13.10;;;11.77;;
40953;SDS011;26686;50.130;8.710;2023-03-12T17:04:42;14.15;;;12.57;;
40953;SDS011;26686;50.130;8.710;2023-03-12T17:09:43;12.75;;;11.55;;
40953;SDS011;26686;50.130;8.710;2023-03-12T17:14:45;14.52;;;12.75;;
40953;SDS011;26686;50.130;8.710;2023-03-12T17:19:47;14.25;;;12.88;;
40953;SDS011;26686;50.130;8.710;2023-03-12T17:24:49;18.02;;;13.15;;
40953;SDS011;26686;50.130;8.710;2023-03-12T17:29:50;19.65;;;14.90;;
40953;SDS011;26686;50.130;8.710;2023-03-12T17:34:55;17.17;;;12.80;;
40953;SDS011;26686;50.130;8.710;2023-03-12T17:39:57;14.55;;;11.57;;
40953;SDS011;26686;50.130;8.710;2023-03-12T17:45:02;19.50;;;11.27;;
40953;SDS011;26686;50.130;8.710;2023-03-12T17:50:05;15.35;;;9.50;;
40953;SDS011;26686;50.130;8.710;2023-03-12T17:55:07;17.70;;;10.40;;
40953;SDS011;26686;50.130;8.710;2023-03-12T18:00:12;18.25;;;10.70;;
40953;SDS011;26686;50.130;8.710;2023-03-12T18:05:14;17.65;;;9.77;;
40953;SDS011;26686;50.130;8.710;2023-03-12T18:10:15;17.95;;;8.63;;
40953;SDS011;26686;50.130;8.710;2023-03-12T18:15:18;13.95;;;8.35;;
40953;SDS011;26686;50.130;8.710;2023-03-12T18:20:19;14.95;;;7.38;;
40953;SDS011;26686;50.130;8.710;2023-03-12T18:25:37;14.68;;;8.15;;
40953;SDS011;26686;50.130;8.710;2023-03-12T18:30:39;15.15;;;7.53;;
40953;SDS011;26686;50.130;8.710;2023-03-12T18:35:44;8.70;;;4.82;;
40953;SDS011;26686;50.130;8.710;2023-03-12T18:40:46;12.45;;;5.07;;
40953;SDS011;26686;50.130;8.710;2023-03-12T18:45:48;12.23;;;4.93;;
40953;SDS011;26686;50.130;8.710;2023-03-12T18:50:49;11.52;;;4.38;;
40953;SDS011;26686;50.130;8.710;2023-03-12T18:55:55;13.85;;;4.10;;
40953;SDS011;26686;50.130;8.710;2023-03-12T19:00:57;12.18;;;4.43;;
40953;SDS011;26686;50.130;8.710;2023-03-12T19:06:00;11.23;;;3.45;;
40953;SDS011;26686;50.130;8.710;2023-03-12T19:11:04;12.85;;;4.07;;
40953;SDS011;26686;50.130;8.710;2023-03-12T19:16:08;13.33;;;4.50;;
40953;SDS011;26686;50.130;8.710;2023-03-12T19:21:12;11.30;;;3.50;;
40953;SDS011;26686;50.130;8.710;2023-03-12T19:26:13;23.92;;;5.18;;
40953;SDS011;26686;50.130;8.710;2023-03-12T19:31:15;12.02;;;4.00;;
40953;SDS011;26686;50.130;8.710;2023-03-12T19:36:16;14.07;;;4.32;;
40953;SDS011;26686;50.130;8.710;2023-03-12T19:41:17;13.63;;;4.40;;
40953;SDS011;26686;50.130;8.710;2023-03-12T19:46:19;11.25;;;4.35;;
40953;SDS011;26686;50.130;8.710;2023-03-12T19:51:22;11.27;;;3.95;;
40953;SDS011;26686;50.130;8.710;2023-03-12T19:56:23;11.07;;;4.18;;
40953;SDS011;26686;50.130;8.710;2023-03-12T20:01:25;14.10;;;4.30;;
40953;SDS011;26686;50.130;8.710;2023-03-12T20:06:26;10.32;;;3.50;;
40953;SDS011;26686;50.130;8.710;2023-03-12T20:11:27;11.23;;;3.30;;
40953;SDS011;26686;50.130;8.710;2023-03-12T20:16:29;10.48;;;4.00;;
40953;SDS011;26686;50.130;8.710;2023-03-12T20:21:31;12.45;;;5.10;;
40953;SDS011;26686;50.130;8.710;2023-03-12T20:26:33;14.48;;;3.40;;
40953;SDS011;26686;50.130;8.710;2023-03-12T20:31:34;12.80;;;3.75;;
40953;SDS011;26686;50.130;8.710;2023-03-12T20:36:35;15.27;;;4.30;;
40953;SDS011;26686;50.130;8.710;2023-03-12T20:41:37;10.75;;;3.92;;
40953;SDS011;26686;50.130;8.710;2023-03-12T20:46:38;15.77;;;4.78;;
40953;SDS011;26686;50.130;8.710;2023-03-12T20:51:40;11.07;;;3.63;;
40953;SDS011;26686;50.130;8.710;2023-03-12T20:56:42;13.68;;;3.97;;
40953;SDS011;26686;50.130;8.710;2023-03-12T21:01:44;10.65;;;3.25;;
40953;SDS011;26686;50.130;8.710;2023-03-12T21:06:46;13.85;;;4.55;;
40953;SDS011;26686;50.130;8.710;2023-03-12T21:11:48;13.82;;;4.13;;
40953;SDS011;26686;50.130;8.710;2023-03-12T21:16:50;11.10;;;3.30;;
40953;SDS011;26686;50.130;8.710;2023-03-12T21:21:51;12.90;;;3.97;;
40953;SDS011;26686;50.130;8.710;2023-03-12T21:26:53;10.10;;;3.50;;
40953;SDS011;26686;50.130;8.710;2023-03-12T21:31:55;11.75;;;3.85;;
40953;SDS011;26686;50.130;8.710;2023-03-12T21:36:57;13.02;;;4.20;;
40953;SDS011;26686;50.130;8.710;2023-03-12T21:41:58;11.88;;;3.50;;
40953;SDS011;26686;50.130;8.710;2023-03-12T21:47:00;11.13;;;3.72;;
40953;SDS011;26686;50.130;8.710;2023-03-12T21:52:03;12.77;;;4.57;;
40953;SDS011;26686;50.130;8.710;2023-03-12T21:57:05;10.07;;;4.25;;
40953;SDS011;26686;50.130;8.710;2023-03-12T22:02:09;13.98;;;4.32;;
40953;SDS011;26686;50.130;8.710;2023-03-12T22:07:11;11.77;;;3.80;;
40953;SDS011;26686;50.130;8.710;2023-03-12T22:12:13;12.55;;;4.60;;
40953;SDS011;26686;50.130;8.710;2023-03-12T22:17:15;12.85;;;4.80;;
40953;SDS011;26686;50.130;8.710;2023-03-12T22:22:17;14.23;;;4.57;;
40953;SDS011;26686;50.130;8.710;2023-03-12T22:27:18;11.38;;;3.95;;
40953;SDS011;26686;50.130;8.710;2023-03-12T22:32:19;8.90;;;2.88;;
40953;SDS011;26686;50.130;8.710;2023-03-12T22:37:21;10.90;;;4.40;;
40953;SDS011;26686;50.130;8.710;2023-03-12T22:42:23;13.15;;;3.42;;
40953;SDS011;26686;50.130;8.710;2023-03-12T22:47:24;12.43;;;4.30;;
40953;SDS011;26686;50.130;8.710;2023-03-12T22:52:25;13.35;;;3.67;;
40953;SDS011;26686;50.130;8.710;2023-03-12T22:57:27;11.80;;;4.75;;
40953;SDS011;26686;50.130;8.710;2023-03-12T23:02:28;14.27;;;4.07;;
40953;SDS011;26686;50.130;8.710;2023-03-12T23:07:30;11.35;;;3.70;;
40953;SDS011;26686;50.130;8.710;2023-03-12T23:12:31;11.05;;;3.40;;
40953;SDS011;26686;50.130;8.710;2023-03-12T23:17:33;10.60;;;3.13;;
40953;SDS011;26686;50.130;8.710;2023-03-12T23:22:34;8.88;;;3.33;;
40953;SDS011;26686;50.130;8.710;2023-03-12T23:27:35;13.98;;;4.43;;
40953;SDS011;26686;50.130;8.710;2023-03-12T23:32:37;11.32;;;3.55;;
40953;SDS011;26686;50.130;8.710;2023-03-12T23:37:38;10.98;;;3.65;;
40953;SDS011;26686;50.130;8.710;2023-03-12T23:42:40;9.68;;;3.53;;
40953;SDS011;26686;50.130;8.710;2023-03-12T23:47:41;11.70;;;3.38;;
40953;SDS011;26686;50.130;8.710;2023-03-12T23:52:42;13.00;;;3.80;;
40953;SDS011;26686;50.130;8.710;2023-03-12T23:57:44;12.82;;;3.47;;
